createdAt,value
2023-04-08T00:01:18.700Z,101436.97
2023-04-08T00:03:45.950Z,101435.44
2023-04-08T00:06:12.852Z,101430.94
2023-04-08T00:08:39.922Z,101434.50
2023-04-08T00:11:06.716Z,101438.78
2023-04-08T00:13:33.594Z,101444.16
2023-04-08T00:16:00.351Z,101438.03
2023-04-08T00:18:27.260Z,101441.38
2023-04-08T00:20:54.105Z,101425.88
2023-04-08T00:23:21.517Z,101427.78
2023-04-08T00:25:48.398Z,101425.13
2023-04-08T00:28:16.794Z,101438.19
2023-04-08T00:30:43.721Z,101440.56
2023-04-08T00:33:10.538Z,101437.16
2023-04-08T00:35:37.316Z,101435.47
2023-04-08T00:38:06.613Z,101433.72
2023-04-08T00:40:33.698Z,101443.56
2023-04-08T00:43:01.354Z,101436.44
2023-04-08T00:45:27.968Z,101441.69
2023-04-08T00:47:54.669Z,101446.94
2023-04-08T00:50:25.581Z,101448.50
2023-04-08T00:52:52.883Z,101450.16
2023-04-08T00:55:19.546Z,101448.56
2023-04-08T00:57:48.998Z,101440.56
2023-04-08T01:00:16.477Z,101447.38
2023-04-08T01:03:06.030Z,101458.84
2023-04-08T01:05:49.457Z,101460.91
2023-04-08T01:08:16.958Z,101462.59
2023-04-08T01:10:45.776Z,101460.88
2023-04-08T01:13:14.632Z,101460.06
2023-04-08T01:15:42.671Z,101459.03
2023-04-08T01:18:12.504Z,101455.41
2023-04-08T01:20:42.678Z,101456.56
2023-04-08T01:23:19.111Z,101449.53
2023-04-08T01:25:49.859Z,101461.72
2023-04-08T01:28:18.316Z,101464.38
2023-04-08T01:30:47.286Z,101463.38
2023-04-08T01:33:15.988Z,101463.34
2023-04-08T01:35:42.918Z,101472.81
2023-04-08T01:38:12.053Z,101475.41
2023-04-08T01:40:39.244Z,101468.66
2023-04-08T01:43:08.435Z,101474.56
2023-04-08T01:45:35.067Z,101478.94
2023-04-08T01:48:02.398Z,101473.97
2023-04-08T01:50:30.025Z,101467.78
2023-04-08T01:52:59.385Z,101472.19
2023-04-08T01:55:27.081Z,101469.47
2023-04-08T01:57:54.500Z,101479.88
2023-04-08T02:00:24.120Z,101476.44
2023-04-08T02:02:51.274Z,101478.19
2023-04-08T02:05:18.248Z,101476.34
2023-04-08T02:07:46.750Z,101478.88
2023-04-08T02:10:13.458Z,101475.47
2023-04-08T02:12:40.188Z,101478.16
2023-04-08T02:15:07.304Z,101475.53
2023-04-08T02:17:38.448Z,101470.25
2023-04-08T02:20:16.825Z,101472.09
2023-04-08T02:22:52.659Z,101478.88
2023-04-08T02:25:23.629Z,101475.59
2023-04-08T02:27:50.954Z,101473.09
2023-04-08T02:30:18.246Z,101477.16
2023-04-08T02:32:46.436Z,101479.88
2023-04-08T02:35:14.499Z,101476.34
2023-04-08T02:37:41.269Z,101478.22
2023-04-08T02:40:31.261Z,101487.72
2023-04-08T02:42:58.719Z,101493.00
2023-04-08T02:45:31.993Z,101492.28
2023-04-08T02:48:02.234Z,101497.34
2023-04-08T02:50:29.257Z,101500.91
2023-04-08T02:52:56.140Z,101499.84
2023-04-08T02:55:22.795Z,101494.72
2023-04-08T02:57:49.623Z,101500.91
2023-04-08T03:00:16.837Z,101508.69
2023-04-08T03:02:43.570Z,101499.16
2023-04-08T03:05:10.487Z,101511.38
2023-04-08T03:07:37.383Z,101505.25
2023-04-08T03:10:04.425Z,101518.44
2023-04-08T03:12:31.476Z,101524.16
2023-04-08T03:14:58.125Z,101526.72
2023-04-08T03:17:24.791Z,101526.03
2023-04-08T03:19:51.485Z,101529.63
2023-04-08T03:22:18.136Z,101523.66
2023-04-08T03:24:44.771Z,101517.47
2023-04-08T03:27:12.641Z,101520.72
2023-04-08T03:29:39.263Z,101526.78
2023-04-08T03:32:06.300Z,101531.38
2023-04-08T03:34:34.655Z,101526.84
2023-04-08T03:37:01.769Z,101525.25
2023-04-08T03:39:28.573Z,101539.84
2023-04-08T03:41:55.318Z,101536.34
2023-04-08T03:44:21.922Z,101530.22
2023-04-08T03:46:51.658Z,101535.38
2023-04-08T03:49:18.344Z,101539.69
2023-04-08T03:51:44.986Z,101531.06
2023-04-08T03:54:13.315Z,101533.00
2023-04-08T03:56:40.483Z,101540.88
2023-04-08T03:59:07.263Z,101536.34
2023-04-08T04:01:34.282Z,101534.72
2023-04-08T04:04:01.165Z,101530.28
2023-04-08T04:06:28.158Z,101535.59
2023-04-08T04:08:57.764Z,101539.06
2023-04-08T04:11:24.524Z,101547.81
2023-04-08T04:13:51.470Z,101552.19
2023-04-08T04:16:18.250Z,101559.13
2023-04-08T04:18:44.944Z,101556.31
2023-04-08T04:21:11.631Z,101551.31
2023-04-08T04:23:38.564Z,101560.75
2023-04-08T04:26:09.960Z,101556.56
2023-04-08T04:28:36.705Z,101553.22
2023-04-08T04:31:04.958Z,101548.66
2023-04-08T04:33:31.797Z,101559.84
2023-04-08T04:35:58.486Z,101572.94
2023-04-08T04:38:25.165Z,101569.59
2023-04-08T04:40:51.880Z,101576.72
2023-04-08T04:43:18.483Z,101580.78
2023-04-08T04:45:45.252Z,101574.88
2023-04-08T04:48:12.468Z,101585.25
2023-04-08T04:50:39.055Z,101584.53
2023-04-08T04:53:05.825Z,101590.69
2023-04-08T04:55:32.645Z,101588.06
2023-04-08T04:57:59.384Z,101585.44
2023-04-08T05:00:26.035Z,101587.97
2023-04-08T05:02:53.296Z,101596.69
2023-04-08T05:05:20.770Z,101602.91
2023-04-08T05:07:47.477Z,101601.16
2023-04-08T05:10:14.109Z,101593.44
2023-04-08T05:12:41.416Z,101603.72
2023-04-08T05:15:08.166Z,101602.84
2023-04-08T05:17:34.925Z,101608.13
2023-04-08T05:20:02.623Z,101608.19
2023-04-08T05:22:29.236Z,101618.59
2023-04-08T05:24:56.048Z,101606.47
2023-04-08T05:27:22.727Z,101609.88
2023-04-08T05:29:49.360Z,101612.28
2023-04-08T05:32:17.092Z,101622.06
2023-04-08T05:34:44.070Z,101627.97
2023-04-08T05:37:11.008Z,101620.41
2023-04-08T05:39:37.767Z,101623.84
2023-04-08T05:42:04.410Z,101621.06
2023-04-08T05:44:31.215Z,101628.22
2023-04-08T05:46:58.330Z,101623.63
2023-04-08T05:49:25.027Z,101637.50
2023-04-08T05:51:51.730Z,101630.84
2023-04-08T05:54:18.375Z,101630.72
2023-04-08T05:56:46.385Z,101642.00
2023-04-08T05:59:13.145Z,101640.47
2023-04-08T06:01:39.966Z,101643.22
2023-04-08T06:04:07.007Z,101641.47
2023-04-08T06:06:34.048Z,101642.53
2023-04-08T06:09:00.770Z,101647.00
2023-04-08T06:11:28.192Z,101646.88
2023-04-08T06:13:54.961Z,101653.13
2023-04-08T06:16:21.649Z,101656.56
2023-04-08T06:18:49.237Z,101657.53
2023-04-08T06:21:16.166Z,101656.44
2023-04-08T06:23:42.889Z,101659.97
2023-04-08T06:26:09.578Z,101674.25
2023-04-08T06:28:36.350Z,101669.91
2023-04-08T06:31:03.016Z,101677.00
2023-04-08T06:33:29.698Z,101674.25
2023-04-08T06:36:07.242Z,101683.28
2023-04-08T06:38:34.466Z,101681.56
2023-04-08T06:41:08.522Z,101688.66
2023-04-08T06:43:36.543Z,101686.97
2023-04-08T06:46:03.621Z,101691.09
2023-04-08T06:48:30.996Z,101681.69
2023-04-08T06:50:59.029Z,101690.44
2023-04-08T06:53:26.992Z,101695.63
2023-04-08T06:55:53.639Z,101692.47
2023-04-08T06:58:23.231Z,101691.72
2023-04-08T07:00:50.025Z,101702.94
2023-04-08T07:03:16.925Z,101706.41
2023-04-08T07:05:47.531Z,101708.19
2023-04-08T07:08:14.422Z,101709.75
2023-04-08T07:10:41.988Z,101712.19
2023-04-08T07:13:08.829Z,101716.81
2023-04-08T07:15:35.547Z,101719.53
2023-04-08T07:18:02.922Z,101721.41
2023-04-08T07:20:31.623Z,101723.22
2023-04-08T07:22:58.871Z,101724.22
2023-04-08T07:25:25.743Z,101741.56
2023-04-08T07:27:52.976Z,101741.38
2023-04-08T07:30:19.822Z,101736.28
2023-04-08T07:32:46.515Z,101740.06
2023-04-08T07:35:13.382Z,101738.25
2023-04-08T07:37:40.172Z,101740.97
2023-04-08T07:40:08.442Z,101739.09
2023-04-08T07:42:35.570Z,101743.16
2023-04-08T07:45:03.629Z,101741.75
2023-04-08T07:47:30.388Z,101755.91
2023-04-08T07:49:57.154Z,101750.84
2023-04-08T07:52:23.813Z,101753.34
2023-04-08T07:54:50.745Z,101755.06
2023-04-08T07:57:17.704Z,101751.72
2023-04-08T07:59:44.691Z,101749.09
2023-04-08T08:02:11.796Z,101745.66
2023-04-08T08:04:38.629Z,101763.25
2023-04-08T08:07:05.872Z,101775.38
2023-04-08T08:09:32.569Z,101766.44
2023-04-08T08:11:59.201Z,101765.63
2023-04-08T08:14:26.854Z,101760.50
2023-04-08T08:16:54.357Z,101769.53
2023-04-08T08:19:21.382Z,101775.13
2023-04-08T08:21:48.260Z,101762.94
2023-04-08T08:24:14.989Z,101760.38
2023-04-08T08:26:41.848Z,101770.81
2023-04-08T08:29:09.014Z,101772.44
2023-04-08T08:31:35.856Z,101777.56
2023-04-08T08:34:02.937Z,101771.41
2023-04-08T08:36:29.684Z,101774.34
2023-04-08T08:38:56.434Z,101773.56
2023-04-08T08:41:23.243Z,101773.47
2023-04-08T08:43:50.468Z,101778.88
2023-04-08T08:46:19.121Z,101775.25
2023-04-08T08:48:46.357Z,101781.47
2023-04-08T08:51:13.639Z,101779.00
2023-04-08T08:53:45.129Z,101784.38
2023-04-08T08:58:42.034Z,101775.56
2023-04-08T09:01:31.237Z,101788.94
2023-04-08T09:04:17.263Z,101789.94
2023-04-08T09:06:45.444Z,101774.25
2023-04-08T09:09:12.309Z,101795.25
2023-04-08T09:11:40.914Z,101789.72
2023-04-08T09:14:24.786Z,101797.88
2023-04-08T09:16:52.363Z,101798.97
2023-04-08T09:19:19.195Z,101796.34
2023-04-08T09:21:46.039Z,101809.38
2023-04-08T09:24:28.923Z,101807.56
2023-04-08T09:26:56.591Z,101815.63
2023-04-08T09:29:27.628Z,101819.09
2023-04-08T09:31:56.786Z,101826.06
2023-04-08T09:34:24.018Z,101821.94
2023-04-08T09:36:51.500Z,101827.31
2023-04-08T09:39:18.226Z,101811.69
2023-04-08T09:41:48.587Z,101816.84
2023-04-08T09:44:20.058Z,101822.06
2023-04-08T09:46:49.559Z,101823.78
2023-04-08T09:49:39.126Z,101830.22
2023-04-08T09:52:15.788Z,101831.13
2023-04-08T09:54:51.923Z,101832.91
2023-04-08T09:57:29.040Z,101827.63
2023-04-08T10:00:05.836Z,101825.94
2023-04-08T10:02:36.624Z,101832.13
2023-04-08T10:05:04.960Z,101825.28
2023-04-08T10:07:33.015Z,101820.91
2023-04-08T10:09:59.710Z,101823.31
2023-04-08T10:12:26.559Z,101823.44
2023-04-08T10:15:23.746Z,101833.44
2023-04-08T10:17:51.313Z,101829.09
2023-04-08T10:20:36.445Z,101833.59
2023-04-08T10:23:04.290Z,101838.69
2023-04-08T10:25:32.757Z,101835.28
2023-04-08T10:28:11.832Z,101834.56
2023-04-08T10:30:38.488Z,101838.84
2023-04-08T10:33:11.292Z,101843.25
2023-04-08T10:36:04.654Z,101834.66
2023-04-08T10:38:32.124Z,101837.19
2023-04-08T10:41:02.648Z,101840.69
2023-04-08T10:43:33.879Z,101844.94
2023-04-08T10:46:00.681Z,101844.16
2023-04-08T10:48:29.208Z,101844.22
2023-04-08T10:51:00.443Z,101852.13
2023-04-08T10:53:36.063Z,101847.56
2023-04-08T10:56:17.730Z,101847.47
2023-04-08T10:58:59.078Z,101845.81
2023-04-08T11:01:30.322Z,101844.22
2023-04-08T11:03:58.961Z,101844.00
2023-04-08T11:06:30.920Z,101844.22
2023-04-08T11:09:00.150Z,101841.72
2023-04-08T11:11:29.687Z,101848.75
2023-04-08T11:13:57.383Z,101842.63
2023-04-08T11:16:24.332Z,101853.09
2023-04-08T11:18:51.083Z,101848.75
2023-04-08T11:21:20.409Z,101852.34
2023-04-08T11:23:50.174Z,101849.56
2023-04-08T11:26:17.277Z,101847.97
2023-04-08T11:28:45.486Z,101851.53
2023-04-08T11:31:13.237Z,101848.91
2023-04-08T11:33:45.917Z,101852.47
2023-04-08T11:36:12.623Z,101854.09
2023-04-08T11:38:41.383Z,101850.63
2023-04-08T11:41:12.161Z,101857.78
2023-04-08T11:43:41.055Z,101854.25
2023-04-08T11:46:11.565Z,101861.19
2023-04-08T11:48:39.280Z,101860.22
2023-04-08T11:51:09.786Z,101865.50
2023-04-08T11:53:37.836Z,101862.94
2023-04-08T11:56:21.308Z,101860.41
2023-04-08T11:58:49.282Z,101862.28
2023-04-08T12:01:16.328Z,101862.28
2023-04-08T12:03:54.586Z,101857.13
2023-04-08T12:06:21.401Z,101852.00
2023-04-08T12:08:48.118Z,101852.97
2023-04-08T12:11:20.085Z,101858.31
2023-04-08T12:13:47.173Z,101853.09
2023-04-08T12:16:14.330Z,101846.09
2023-04-08T12:18:41.680Z,101848.81
2023-04-08T12:21:08.563Z,101840.00
2023-04-08T12:23:35.484Z,101847.06
2023-04-08T12:26:03.829Z,101848.81
2023-04-08T12:28:30.466Z,101835.63
2023-04-08T12:30:57.202Z,101839.16
2023-04-08T12:33:23.820Z,101839.09
2023-04-08T12:35:50.577Z,101832.03
2023-04-08T12:38:17.656Z,101831.06
2023-04-08T12:40:44.270Z,101831.09
2023-04-08T12:43:11.226Z,101824.06
2023-04-08T12:45:38.037Z,101816.88
2023-04-08T12:48:05.130Z,101821.13
2023-04-08T12:50:31.755Z,101819.22
2023-04-08T12:52:58.428Z,101820.16
2023-04-08T12:55:25.263Z,101819.38
2023-04-08T12:57:52.417Z,101815.97
2023-04-08T13:00:19.567Z,101811.59
2023-04-08T13:02:46.775Z,101817.94
2023-04-08T13:05:13.547Z,101814.34
2023-04-08T13:07:40.514Z,101809.88
2023-04-08T13:10:08.503Z,101808.97
2023-04-08T13:12:35.141Z,101804.59
2023-04-08T13:15:02.029Z,101810.66
2023-04-08T13:17:29.064Z,101814.88
2023-04-08T13:19:55.822Z,101809.44
2023-04-08T13:22:24.157Z,101805.81
2023-04-08T13:24:51.334Z,101796.88
2023-04-08T13:27:18.057Z,101797.69
2023-04-08T13:29:45.712Z,101786.88
2023-04-08T13:32:12.510Z,101798.56
2023-04-08T13:34:39.448Z,101793.53
2023-04-08T13:37:06.147Z,101792.81
2023-04-08T13:39:33.526Z,101795.63
2023-04-08T13:42:00.242Z,101800.09
2023-04-08T13:44:27.249Z,101795.78
2023-04-08T13:46:54.035Z,101796.66
2023-04-08T13:49:20.641Z,101793.06
2023-04-08T13:51:47.245Z,101795.56
2023-04-08T13:54:13.909Z,101791.06
2023-04-08T13:56:40.532Z,101794.63
2023-04-08T13:59:07.460Z,101791.06
2023-04-08T14:01:34.245Z,101791.97
2023-04-08T14:04:01.107Z,101793.94
2023-04-08T14:06:27.798Z,101792.97
2023-04-08T14:08:54.648Z,101781.47
2023-04-08T14:11:21.385Z,101789.34
2023-04-08T14:13:49.209Z,101785.75
2023-04-08T14:16:16.744Z,101780.44
2023-04-08T14:18:43.375Z,101785.63
2023-04-08T14:21:10.086Z,101789.25
2023-04-08T14:23:36.793Z,101781.34
2023-04-08T14:26:03.576Z,101783.06
2023-04-08T14:28:33.107Z,101783.94
2023-04-08T14:30:59.758Z,101788.59
2023-04-08T14:33:27.276Z,101789.56
2023-04-08T14:35:57.320Z,101787.72
2023-04-08T14:38:23.975Z,101781.53
2023-04-08T14:40:50.741Z,101781.44
2023-04-08T14:43:17.510Z,101784.06
2023-04-08T14:45:45.044Z,101779.63
2023-04-08T14:48:11.927Z,101784.09
2023-04-08T14:50:38.639Z,101776.19
2023-04-08T14:53:05.406Z,101780.59
2023-04-08T14:55:32.358Z,101777.03
2023-04-08T14:58:00.926Z,101782.28
2023-04-08T15:00:27.856Z,101777.09
2023-04-08T15:02:54.673Z,101774.31
2023-04-08T15:05:21.498Z,101787.56
2023-04-08T15:07:48.521Z,101784.22
2023-04-08T15:10:15.193Z,101774.50
2023-04-08T15:12:41.918Z,101777.88
2023-04-08T15:15:08.937Z,101769.91
2023-04-08T15:17:35.705Z,101777.81
2023-04-08T15:20:02.430Z,101770.06
2023-04-08T15:22:29.069Z,101775.50
2023-04-08T15:24:55.927Z,101780.97
2023-04-08T15:27:22.840Z,101771.19
2023-04-08T15:29:49.950Z,101781.66
2023-04-08T15:32:21.495Z,101781.63
2023-04-08T15:34:48.445Z,101782.59
2023-04-08T15:37:15.705Z,101782.59
2023-04-08T15:39:42.530Z,101778.19
2023-04-08T15:42:09.125Z,101783.47
2023-04-08T15:44:36.155Z,101786.13
2023-04-08T15:47:03.058Z,101789.72
2023-04-08T15:49:30.001Z,101789.72
2023-04-08T15:51:56.745Z,101787.94
2023-04-08T15:54:23.363Z,101795.94
2023-04-08T15:56:50.039Z,101792.41
2023-04-08T15:59:16.984Z,101796.81
2023-04-08T16:01:44.169Z,101795.94
2023-04-08T16:04:11.213Z,101790.66
2023-04-08T16:06:38.415Z,101789.81
2023-04-08T16:09:05.402Z,101803.03
2023-04-08T16:11:34.008Z,101800.41
2023-04-08T16:14:00.831Z,101803.09
2023-04-08T16:16:27.556Z,101804.81
2023-04-08T16:18:56.205Z,101806.63
2023-04-08T16:21:23.001Z,101805.69
2023-04-08T16:23:49.893Z,101806.63
2023-04-08T16:26:17.147Z,101805.69
2023-04-08T16:28:43.883Z,101809.22
2023-04-08T16:31:10.726Z,101807.44
2023-04-08T16:33:37.444Z,101813.63
2023-04-08T16:36:04.432Z,101810.97
2023-04-08T16:38:31.088Z,101822.34
2023-04-08T16:41:01.131Z,101821.47
2023-04-08T16:43:28.150Z,101818.81
2023-04-08T16:45:54.773Z,101824.97
2023-04-08T16:48:21.387Z,101833.81
2023-04-08T16:50:48.022Z,101832.94
2023-04-08T16:53:14.860Z,101833.78
2023-04-08T16:55:41.567Z,101833.81
2023-04-08T16:58:08.427Z,101839.94
2023-04-08T17:00:35.161Z,101833.78
2023-04-08T17:03:02.442Z,101843.41
2023-04-08T17:05:29.477Z,101852.16
2023-04-08T17:07:59.088Z,101849.53
2023-04-08T17:10:25.778Z,101852.19
2023-04-08T17:12:52.508Z,101860.06
2023-04-08T17:15:19.321Z,101859.13
2023-04-08T17:17:46.596Z,101860.84
2023-04-08T17:20:13.519Z,101866.09
2023-04-08T17:22:40.228Z,101872.22
2023-04-08T17:25:08.078Z,101866.94
2023-04-08T17:27:35.038Z,101874.00
2023-04-08T17:30:01.863Z,101874.84
2023-04-08T17:32:28.538Z,101873.91
2023-04-08T17:34:55.668Z,101874.75
2023-04-08T17:37:22.372Z,101872.94
2023-04-08T17:39:49.024Z,101881.59
2023-04-08T17:42:16.891Z,101885.13
2023-04-08T17:44:44.853Z,101879.78
2023-04-08T17:47:11.500Z,101878.84
2023-04-08T17:49:38.238Z,101879.53
2023-04-08T17:52:06.015Z,101884.88
2023-04-08T17:54:34.499Z,101892.72
2023-04-08T17:57:01.579Z,101899.63
2023-04-08T17:59:28.293Z,101893.25
2023-04-08T18:01:55.151Z,101904.63
2023-04-08T18:04:22.854Z,101912.47
2023-04-08T18:06:49.595Z,101914.22
2023-04-08T18:09:16.232Z,101916.75
2023-04-08T18:11:42.821Z,101922.88
2023-04-08T18:14:09.783Z,101923.75
2023-04-08T18:16:36.467Z,101931.47
2023-04-08T18:19:03.310Z,101930.53
2023-04-08T18:21:30.028Z,101933.94
2023-04-08T18:23:56.631Z,101936.47
2023-04-08T18:26:23.439Z,101937.13
2023-04-08T18:28:50.283Z,101950.13
2023-04-08T18:31:17.054Z,101952.78
2023-04-08T18:33:43.807Z,101950.06
2023-04-08T18:36:12.662Z,101952.63
2023-04-08T18:38:40.917Z,101955.03
2023-04-08T18:41:07.976Z,101957.44
2023-04-08T18:43:34.717Z,101965.31
2023-04-08T18:46:01.620Z,101965.97
2023-04-08T18:48:28.636Z,101978.06
2023-04-08T18:50:55.344Z,101976.22
2023-04-08T18:53:22.618Z,101984.41
2023-04-08T18:55:49.277Z,101983.53
2023-04-08T18:58:15.934Z,101989.41
2023-04-08T19:00:43.747Z,101998.28
2023-04-08T19:03:10.786Z,102001.91
2023-04-08T19:05:37.890Z,102001.22
2023-04-08T19:08:04.848Z,102009.97
2023-04-08T19:10:32.977Z,102008.31
2023-04-08T19:12:59.969Z,102006.53
2023-04-08T19:15:26.977Z,102010.09
2023-04-08T19:17:54.225Z,102008.94
2023-04-08T19:20:21.279Z,102015.22
2023-04-08T19:22:49.201Z,102016.25
2023-04-08T19:25:16.967Z,102010.94
2023-04-08T19:27:45.777Z,102014.28
2023-04-08T19:30:13.203Z,102008.19
2023-04-08T19:32:42.851Z,102008.59
2023-04-08T19:35:12.564Z,102012.84
2023-04-08T19:37:39.302Z,102004.91
2023-04-08T19:40:07.326Z,102012.66
2023-04-08T19:42:34.156Z,102013.69
2023-04-08T19:45:03.834Z,102015.31
2023-04-08T19:47:30.541Z,102017.78
2023-04-08T19:49:58.250Z,102016.00
2023-04-08T19:52:25.393Z,102008.91
2023-04-08T19:54:52.377Z,102011.53
2023-04-08T19:57:19.891Z,102018.81
2023-04-08T19:59:48.766Z,102016.16
2023-04-08T20:02:21.808Z,102014.31
2023-04-08T20:04:54.153Z,102015.94
2023-04-08T20:07:25.299Z,102016.78
2023-04-08T20:09:52.024Z,102023.03
2023-04-08T20:12:18.792Z,102028.94
2023-04-08T20:14:46.012Z,102021.88
2023-04-08T20:17:12.912Z,102036.72
2023-04-08T20:19:40.333Z,102027.31
2023-04-08T20:22:07.155Z,102034.41
2023-04-08T20:24:34.223Z,102030.88
2023-04-08T20:27:01.498Z,102042.50
2023-04-08T20:29:28.602Z,102042.44
2023-04-08T20:31:55.337Z,102037.03
2023-04-08T20:34:22.340Z,102038.84
2023-04-08T20:36:49.055Z,102044.47
2023-04-08T20:39:16.773Z,102044.16
2023-04-08T20:41:43.535Z,102044.19
2023-04-08T20:44:12.444Z,102050.50
2023-04-08T20:46:39.719Z,102045.25
2023-04-08T20:49:06.629Z,102042.72
2023-04-08T20:51:40.025Z,102042.72
2023-04-08T20:54:17.805Z,102037.25
2023-04-08T20:56:54.125Z,102041.44
2023-04-08T20:59:30.441Z,102037.22
2023-04-08T21:02:03.175Z,102042.06
2023-04-08T21:04:29.927Z,102037.69
2023-04-08T21:06:56.778Z,102042.16
2023-04-08T21:09:23.459Z,102040.28
2023-04-08T21:11:50.157Z,102032.56
2023-04-08T21:14:19.067Z,102031.69
2023-04-08T21:16:46.202Z,102036.63
2023-04-08T21:19:16.034Z,102027.66
2023-04-08T21:21:45.451Z,102036.31
2023-04-08T21:24:13.543Z,102041.44
2023-04-08T21:26:40.442Z,102037.81
2023-04-08T21:29:09.586Z,102039.69
2023-04-08T21:31:38.017Z,102034.88
2023-04-08T21:34:06.188Z,102039.06
2023-04-08T21:36:33.675Z,102032.34
2023-04-08T21:39:00.624Z,102023.50
2023-04-08T21:41:30.205Z,102026.88
2023-04-08T21:43:57.375Z,102024.16
2023-04-08T21:46:24.155Z,102034.59
2023-04-08T21:48:51.203Z,102026.94
2023-04-08T21:51:18.485Z,102037.22
2023-04-08T21:53:45.648Z,102044.38
2023-04-08T21:56:13.987Z,102036.19
2023-04-08T21:58:40.810Z,102042.44
2023-04-08T22:01:07.872Z,102035.44
2023-04-08T22:03:34.781Z,102023.44
2023-04-08T22:06:08.783Z,102031.94
2023-04-08T22:08:35.595Z,102031.16
2023-04-08T22:11:09.538Z,102027.84
2023-04-08T22:13:36.346Z,102027.84
2023-04-08T22:16:03.129Z,102024.75
2023-04-08T22:18:29.893Z,102024.56
2023-04-08T22:20:56.473Z,102034.97
2023-04-08T22:23:26.221Z,102031.59
2023-04-08T22:25:52.963Z,102030.00
2023-04-08T22:28:19.729Z,102032.47
2023-04-08T22:30:46.877Z,102035.84
2023-04-08T22:33:13.566Z,102032.69
2023-04-08T22:35:40.665Z,102029.44
2023-04-08T22:38:07.460Z,102024.03
2023-04-08T22:40:37.290Z,102018.47
2023-04-08T22:43:03.949Z,102019.31
2023-04-08T22:45:30.602Z,102016.66
2023-04-08T22:47:57.258Z,102019.38
2023-04-08T22:50:24.196Z,102017.66
2023-04-08T22:52:50.922Z,102020.09
2023-04-08T22:55:17.534Z,102013.97
2023-04-08T22:57:44.521Z,102004.53
2023-04-08T23:00:14.943Z,102013.00
2023-04-08T23:02:44.081Z,102014.13
2023-04-08T23:05:13.448Z,102021.56
2023-04-08T23:07:40.395Z,102013.63
2023-04-08T23:10:07.726Z,102013.97
2023-04-08T23:12:34.645Z,102011.19
2023-04-08T23:15:01.872Z,102022.34
2023-04-08T23:17:31.565Z,102010.28
2023-04-08T23:19:58.177Z,102024.41
2023-04-08T23:22:25.059Z,102024.09
2023-04-08T23:24:51.996Z,102023.34
2023-04-08T23:27:25.208Z,102014.69
2023-04-08T23:29:51.807Z,102017.38
2023-04-08T23:32:23.842Z,102015.09
2023-04-08T23:34:50.649Z,102013.91
2023-04-08T23:37:17.493Z,102024.94
2023-04-08T23:39:44.119Z,102022.53
2023-04-08T23:42:10.942Z,102024.00
2023-04-08T23:44:37.636Z,102017.06
2023-04-08T23:47:04.272Z,102021.41
2023-04-08T23:49:30.910Z,102019.72
2023-04-08T23:51:57.546Z,102020.00
2023-04-08T23:54:24.325Z,102013.81
2023-04-08T23:56:50.975Z,102015.31
2023-04-08T23:59:17.609Z,102009.13
